createdAt,value
2022-10-26T03:46:32.620Z,100991.78
2022-10-26T03:49:36.069Z,100991.78
2022-10-26T03:52:38.796Z,100995.06
2022-10-26T03:55:44.658Z,101001.94
2022-10-26T03:58:47.012Z,100997.56
2022-10-26T04:01:52.754Z,101001.16
2022-10-26T04:04:58.130Z,101000.31
2022-10-26T04:08:04.685Z,101000.22
2022-10-26T04:11:07.387Z,100998.53
2022-10-26T04:14:09.640Z,101004.66
2022-10-26T04:17:12.243Z,101019.34
2022-10-26T04:20:15.265Z,101018.50
2022-10-26T04:23:19.516Z,101009.00
2022-10-26T04:26:21.829Z,101012.22
2022-10-26T04:29:24.468Z,101019.38
2022-10-26T04:32:27.020Z,101016.00
2022-10-26T04:35:30.211Z,101013.37
2022-10-26T04:38:32.573Z,101006.47
2022-10-26T04:41:35.131Z,101015.16
2022-10-26T04:44:37.422Z,101011.62
2022-10-26T04:47:40.674Z,101004.88
2022-10-26T04:50:42.957Z,101009.19
2022-10-26T04:53:45.490Z,101009.97
2022-10-26T04:56:47.723Z,101002.25
2022-10-26T04:59:50.655Z,101006.66
2022-10-26T05:03:02.865Z,101007.44
2022-10-26T05:06:05.665Z,101004.88
2022-10-26T05:09:08.011Z,101013.41
2022-10-26T05:12:10.577Z,101009.13
2022-10-26T05:15:15.071Z,101006.37
2022-10-26T05:18:17.850Z,101007.19
2022-10-26T05:21:20.225Z,101009.13
2022-10-26T05:24:22.831Z,101023.91
2022-10-26T05:27:25.181Z,101028.00
2022-10-26T05:30:29.956Z,101023.25
2022-10-26T05:33:32.230Z,101033.00
2022-10-26T05:36:34.726Z,101033.09
2022-10-26T05:39:37.035Z,101036.31
2022-10-26T05:42:39.611Z,101030.25
2022-10-26T05:45:41.870Z,101027.78
2022-10-26T05:48:44.543Z,101034.88
2022-10-26T05:51:46.897Z,101041.94
2022-10-26T05:54:49.500Z,101041.44
2022-10-26T05:57:52.144Z,101043.00
2022-10-26T06:01:20.202Z,101056.34
2022-10-26T06:04:38.750Z,101049.75
2022-10-26T06:07:41.504Z,101050.97
2022-10-26T06:10:44.321Z,101051.28
2022-10-26T06:13:46.956Z,101056.53
2022-10-26T06:16:57.563Z,101066.34
2022-10-26T06:20:22.257Z,101071.16
2022-10-26T06:23:44.864Z,101078.31
2022-10-26T06:27:15.768Z,101069.44
2022-10-26T06:30:23.316Z,101067.91
2022-10-26T06:33:30.631Z,101067.19
2022-10-26T06:36:34.102Z,101075.13
2022-10-26T06:39:42.195Z,101071.59
2022-10-26T06:42:45.037Z,101074.69
2022-10-26T06:45:52.102Z,101079.75
2022-10-26T06:49:10.971Z,101083.97
2022-10-26T06:52:25.619Z,101082.75
2022-10-26T06:55:37.394Z,101080.59
2022-10-26T06:58:41.317Z,101088.47
2022-10-26T07:01:44.299Z,101094.13
2022-10-26T07:04:47.408Z,101091.44
2022-10-26T07:07:50.249Z,101085.09
2022-10-26T07:10:52.826Z,101088.16
2022-10-26T07:13:55.569Z,101082.78
2022-10-26T07:16:57.970Z,101087.03
2022-10-26T07:20:00.550Z,101081.34
2022-10-26T07:23:02.907Z,101096.44
2022-10-26T07:26:05.657Z,101098.63
2022-10-26T07:29:08.119Z,101104.81
2022-10-26T07:32:10.764Z,101106.50
2022-10-26T07:35:13.143Z,101103.59
2022-10-26T07:38:15.641Z,101107.56
2022-10-26T07:41:17.977Z,101101.84
2022-10-26T07:44:20.487Z,101107.59
2022-10-26T07:47:22.922Z,101101.03
2022-10-26T07:50:25.894Z,101108.28
2022-10-26T07:53:28.362Z,101105.84
2022-10-26T07:56:30.944Z,101101.31
2022-10-26T07:59:33.348Z,101103.44
2022-10-26T08:02:36.467Z,101104.00
2022-10-26T08:05:39.007Z,101101.13
2022-10-26T08:08:44.951Z,101100.38
2022-10-26T08:11:49.875Z,101095.47
2022-10-26T08:14:52.166Z,101095.56
2022-10-26T08:17:54.648Z,101093.19
2022-10-26T08:21:10.690Z,101098.50
2022-10-26T08:24:14.918Z,101097.34
2022-10-26T08:27:17.842Z,101100.72
2022-10-26T08:30:20.762Z,101098.94
2022-10-26T08:33:24.078Z,101100.81
2022-10-26T08:36:27.496Z,101097.87
2022-10-26T08:39:30.859Z,101100.22
2022-10-26T08:42:42.911Z,101096.56
2022-10-26T08:45:56.711Z,101097.09
2022-10-26T08:49:14.752Z,101100.34
2022-10-26T08:52:20.460Z,101110.06
2022-10-26T08:55:28.918Z,101109.69
2022-10-26T08:58:39.817Z,101105.34
2022-10-26T09:01:42.731Z,101110.59
2022-10-26T09:04:45.501Z,101112.44
2022-10-26T09:07:53.385Z,101124.19
2022-10-26T09:11:17.926Z,101124.87
2022-10-26T09:14:38.317Z,101117.69
2022-10-26T09:17:46.680Z,101116.13
2022-10-26T09:21:03.499Z,101123.31
2022-10-26T09:24:21.982Z,101119.78
2022-10-26T09:27:34.730Z,101126.84
2022-10-26T09:30:37.802Z,101127.53
2022-10-26T09:33:40.834Z,101133.19
2022-10-26T09:36:42.967Z,101134.91
2022-10-26T09:39:54.948Z,101135.78
2022-10-26T09:42:59.982Z,101135.63
2022-10-26T09:46:02.642Z,101138.34
2022-10-26T09:49:08.604Z,101133.97
2022-10-26T09:55:20.748Z,101131.31
2022-10-26T09:58:28.795Z,101134.44
2022-10-26T10:01:36.853Z,101134.09
2022-10-26T10:04:48.176Z,101136.69
2022-10-26T10:07:51.206Z,101135.69
2022-10-26T10:10:59.183Z,101142.34
2022-10-26T10:14:08.788Z,101134.12
2022-10-26T10:17:22.660Z,101149.19
2022-10-26T10:20:31.740Z,101139.22
2022-10-26T10:23:49.771Z,101138.50
2022-10-26T10:26:59.526Z,101143.06
2022-10-26T10:30:22.431Z,101141.53
2022-10-26T10:33:36.018Z,101149.53
2022-10-26T10:36:40.025Z,101155.44
2022-10-26T10:39:42.907Z,101140.00
2022-10-26T10:42:47.704Z,101137.53
2022-10-26T10:45:54.736Z,101137.34
2022-10-26T10:49:06.666Z,101140.16
2022-10-26T10:52:23.053Z,101135.16
2022-10-26T10:55:26.897Z,101143.59
2022-10-26T10:58:38.490Z,101130.31
2022-10-26T11:01:52.155Z,101130.91
2022-10-26T11:05:04.482Z,101119.56
2022-10-26T11:08:12.600Z,101129.97
2022-10-26T11:11:40.581Z,101126.34
2022-10-26T11:14:52.383Z,101122.94
2022-10-26T11:18:05.092Z,101132.00
2022-10-26T11:21:28.959Z,101120.72
2022-10-26T11:24:43.883Z,101118.94
2022-10-26T11:27:55.923Z,101115.53
2022-10-26T11:31:03.409Z,101117.75
2022-10-26T11:34:46.146Z,101111.91
2022-10-26T11:38:05.511Z,101113.81
2022-10-26T11:41:26.036Z,101114.87
2022-10-26T11:44:37.966Z,101110.16
2022-10-26T11:47:48.153Z,101098.50
2022-10-26T11:50:55.027Z,101101.00
2022-10-26T11:54:06.130Z,101107.94
2022-10-26T11:57:10.380Z,101103.31
2022-10-26T12:00:13.028Z,101109.78
2022-10-26T12:03:26.972Z,101102.41
2022-10-26T12:06:33.081Z,101105.88
2022-10-26T12:09:38.878Z,101101.72
2022-10-26T12:13:08.870Z,101101.16
2022-10-26T12:16:42.770Z,101101.09
2022-10-26T12:19:51.388Z,101084.09
2022-10-26T12:22:54.121Z,101091.63
2022-10-26T12:26:24.365Z,101096.12
2022-10-26T12:29:31.578Z,101095.13
2022-10-26T12:32:33.797Z,101090.41
2022-10-26T12:35:39.331Z,101088.59
2022-10-26T12:38:41.586Z,101090.59
2022-10-26T12:41:56.155Z,101084.94
2022-10-26T12:44:58.404Z,101088.91
2022-10-26T12:48:10.671Z,101081.16
2022-10-26T12:51:24.554Z,101078.25
2022-10-26T12:54:45.881Z,101068.00
2022-10-26T12:58:00.178Z,101072.56
2022-10-26T13:01:03.434Z,101073.22
2022-10-26T13:04:38.318Z,101063.06
2022-10-26T13:07:41.762Z,101077.13
2022-10-26T13:11:13.957Z,101080.53
2022-10-26T13:14:21.936Z,101078.38
2022-10-26T13:17:27.174Z,101070.34
2022-10-26T13:20:31.920Z,101072.03
2022-10-26T13:23:37.791Z,101070.09
2022-10-26T13:27:19.430Z,101071.37
2022-10-26T13:30:46.248Z,101079.69
2022-10-26T13:33:52.341Z,101085.72
2022-10-26T13:37:14.153Z,101087.50
2022-10-26T13:40:23.377Z,101081.25
2022-10-26T13:43:27.406Z,101082.59
2022-10-26T13:46:35.708Z,101076.16
2022-10-26T13:49:44.216Z,101085.66
2022-10-26T13:53:01.096Z,101082.41
2022-10-26T13:56:21.715Z,101080.47
2022-10-26T13:59:26.526Z,101088.56
2022-10-26T14:02:32.435Z,101086.53
2022-10-26T14:05:50.867Z,101090.87
2022-10-26T14:08:57.610Z,101091.75
2022-10-26T14:12:02.107Z,101091.34
2022-10-26T14:15:09.164Z,101089.09
2022-10-26T14:18:18.064Z,101088.22
2022-10-26T14:21:22.616Z,101094.75
2022-10-26T14:24:45.646Z,101091.91
2022-10-26T14:27:49.716Z,101088.88
2022-10-26T14:30:52.559Z,101098.81
2022-10-26T14:33:57.150Z,101096.66
2022-10-26T14:37:04.999Z,101093.25
2022-10-26T14:40:15.861Z,101093.16
2022-10-26T14:43:22.909Z,101087.69
2022-10-26T14:46:27.216Z,101089.09
2022-10-26T14:49:30.095Z,101086.75
2022-10-26T14:52:35.858Z,101089.56
2022-10-26T14:55:50.959Z,101094.22
2022-10-26T14:58:53.793Z,101099.66
2022-10-26T15:02:18.137Z,101099.59
2022-10-26T15:05:23.619Z,101096.28
2022-10-26T15:08:55.832Z,101098.16
2022-10-26T15:11:59.619Z,101092.59
2022-10-26T15:15:14.433Z,101100.31
2022-10-26T15:18:23.714Z,101097.53
2022-10-26T15:21:40.130Z,101102.69
2022-10-26T15:24:43.351Z,101108.63
2022-10-26T15:27:47.944Z,101105.13
2022-10-26T15:31:23.401Z,101113.81
2022-10-26T15:34:26.196Z,101116.81
2022-10-26T15:37:28.580Z,101109.31
2022-10-26T15:40:31.921Z,101117.19
2022-10-26T15:43:34.219Z,101122.06
